Junius, South Dakota
Current Conditions -  °F | °C
As of 5:55 PM on Sunday 23 Nov 2014 (Local Time) from KMDS Reporting Station
Overcast Overcast  
Wind Chill: 19°   Ceiling: 3000
Heat Index: 32°   Visibility: 10mi
Dew Point: 27°   Wind: 23mph
Humidity: 80%   Direction: 330°NNW
Pressure: 29.54"   Gusts: 33mph
Location:  43.9866°N, 97.1364°W
Report Text: KMDS 232355Z AUTO 33020G29KT 10SM SCT023 BKN030 OVC035 00/M03 A2954 RMK AO2
Loading
Personal Weather Stations






























Interactive Weather Map New forecast layout! Learn more

10-Day Weather Forecast

Advertisements
Track Severe Weather on mobile